Time;durP1;ratioP1;P1;durP2;ratioP2;P2;SDS_P1;SDS_P2;PMS_P1;PMS_P2;Temp;Humidity;BMP_temperature;BMP_pressure;BME280_temperature;BME280_humidity;BME280_pressure;Samples;Min_cycle;Max_cycle;Signal;HPM_P1;HPM_P2
2024/03/27 00:02:06;;;;;;;;;;;5.80;99.90;;;;;;5105228;27;20023;-76
2024/03/27 00:04:32;;;;;;;;;;;5.80;99.90;;;;;;5096118;28;19996;-77
2024/03/27 00:06:58;;;;;;;;;;;5.80;99.90;;;;;;5092522;27;20055;-77
2024/03/27 00:09:23;;;;;;;;;;;5.80;99.90;;;;;;5105683;27;20026;-77
2024/03/27 00:11:50;;;;;;;;;;;5.80;99.90;;;;;;5114994;27;19992;-77
2024/03/27 00:14:17;;;;;;;;;;;5.80;99.90;;;;;;5102640;27;20679;-77
2024/03/27 00:16:44;;;;;;;;;;;5.70;99.90;;;;;;5101911;27;20677;-77
2024/03/27 00:19:10;;;;;;;;;;;5.70;99.90;;;;;;5106690;27;19992;-77
2024/03/27 00:21:35;;;;;;;;;;;5.70;99.90;;;;;;5104196;28;19988;-77
2024/03/27 00:24:01;;;;;;;;;;;5.70;99.90;;;;;;5100744;27;19988;-79
2024/03/27 00:26:26;;;;;;;;;;;5.70;99.90;;;;;;5102426;27;19988;-76
2024/03/27 00:28:52;;;;;;;;;;;5.70;99.90;;;;;;5083795;27;20083;-76
2024/03/27 00:31:18;;;;;;;;;;;5.70;99.90;;;;;;5102019;27;20121;-76
2024/03/27 00:33:43;;;;;;;;;;;5.60;99.90;;;;;;5108406;27;19996;-77
2024/03/27 00:36:09;;;;;;;;;;;5.60;99.90;;;;;;5106058;27;20011;-77
2024/03/27 00:38:35;;;;;;;;;;;5.60;99.90;;;;;;5105257;27;20003;-77
2024/03/27 00:41:01;;;;;;;;;;;5.50;99.90;;;;;;5107740;27;20098;-77
2024/03/27 00:43:27;;;;;;;;;;;5.60;99.90;;;;;;5105657;27;19993;-77
2024/03/27 00:45:53;;;;;;;;;;;5.60;99.90;;;;;;5103281;27;20019;-77
2024/03/27 00:48:18;;;;;;;;;;;5.50;99.90;;;;;;5101755;28;20418;-77
2024/03/27 00:50:44;;;;;;;;;;;5.60;99.90;;;;;;5106800;27;20400;-77
2024/03/27 00:53:09;;;;;;;;;;;5.60;99.90;;;;;;5102650;27;20518;-76
2024/03/27 00:55:35;;;;;;;;;;;5.80;99.90;;;;;;5104390;27;20475;-75
2024/03/27 00:58:00;;;;;;;;;;;5.90;99.90;;;;;;5102974;28;19992;-75
2024/03/27 01:00:28;;;;;;;;;;;5.90;99.90;;;;;;5103103;28;20017;-75
2024/03/27 01:02:53;;;;;;;;;;;5.90;99.90;;;;;;5099651;27;19993;-75
2024/03/27 01:05:19;;;;;;;;;;;5.90;99.90;;;;;;5105589;27;19988;-75
2024/03/27 01:07:45;;;;;;;;;;;5.90;99.90;;;;;;5102648;28;19992;-75
2024/03/27 01:10:11;;;;;;;;;;;5.90;99.90;;;;;;5086267;27;19989;-76
2024/03/27 01:12:37;;;;;;;;;;;6.00;99.90;;;;;;5102692;28;20133;-76
2024/03/27 01:15:03;;;;;;;;;;;6.10;99.90;;;;;;5101551;28;20474;-75
2024/03/27 01:17:29;;;;;;;;;;;6.10;99.90;;;;;;5103672;27;19992;-75
2024/03/27 01:19:54;;;;;;;;;;;6.10;99.90;;;;;;5102904;27;19989;-76
2024/03/27 01:22:20;;;;;;;;;;;6.10;99.90;;;;;;5102484;28;19992;-76
2024/03/27 01:24:45;;;;;;;;;;;6.10;99.90;;;;;;5103453;28;19988;-76
2024/03/27 01:27:11;;;;;;;;;;;6.20;99.90;;;;;;5099734;28;19993;-76
2024/03/27 01:29:37;;;;;;;;;;;6.20;99.90;;;;;;5102663;28;19992;-75
2024/03/27 01:32:02;;;;;;;;;;;6.00;99.90;;;;;;5108013;27;19989;-75
2024/03/27 01:34:28;;;;;;;;;;;5.90;99.90;;;;;;5106046;28;20071;-76
2024/03/27 01:36:53;;;;;;;;;;;5.80;99.90;;;;;;5106485;28;20043;-75
2024/03/27 01:39:20;;;;;;;;;;;5.90;99.90;;;;;;5103084;28;19996;-75
2024/03/27 01:41:46;;;;;;;;;;;5.90;99.90;;;;;;5104518;28;20072;-75
2024/03/27 01:44:16;;;;;;;;;;;5.80;99.90;;;;;;5102489;28;20396;-75
2024/03/27 01:46:42;;;;;;;;;;;5.80;99.90;;;;;;5100449;28;19988;-76
2024/03/27 01:49:08;;;;;;;;;;;5.80;99.90;;;;;;5101546;28;19992;-75
2024/03/27 01:51:34;;;;;;;;;;;5.90;99.90;;;;;;5086853;28;19992;-75
2024/03/27 01:53:59;;;;;;;;;;;5.90;99.90;;;;;;5101516;28;20000;-75
2024/03/27 01:56:26;;;;;;;;;;;6.00;99.90;;;;;;5102140;28;20005;-75
2024/03/27 01:58:52;;;;;;;;;;;6.00;99.90;;;;;;5101418;28;19993;-75
2024/03/27 02:01:17;;;;;;;;;;;6.00;99.90;;;;;;5102210;28;19992;-75
2024/03/27 02:03:43;;;;;;;;;;;6.00;99.90;;;;;;5094835;28;19997;-75
2024/03/27 02:06:10;;;;;;;;;;;6.00;99.90;;;;;;5103157;28;20031;-75
2024/03/27 02:08:36;;;;;;;;;;;5.90;99.90;;;;;;5103310;28;20037;-75
2024/03/27 02:11:01;;;;;;;;;;;5.90;99.90;;;;;;5103481;28;20088;-75
2024/03/27 02:13:27;;;;;;;;;;;5.80;99.90;;;;;;5103214;28;19989;-75
2024/03/27 02:15:59;;;;;;;;;;;5.90;99.90;;;;;;5104341;28;20538;-75
2024/03/27 02:18:25;;;;;;;;;;;6.00;99.90;;;;;;5105574;28;19999;-75
2024/03/27 02:20:50;;;;;;;;;;;6.00;99.90;;;;;;5092694;28;19996;-74
2024/03/27 02:23:18;;;;;;;;;;;6.10;99.90;;;;;;5099743;28;20101;-74
2024/03/27 02:25:49;;;;;;;;;;;6.10;99.90;;;;;;5103343;28;20091;-75
2024/03/27 02:28:16;;;;;;;;;;;6.10;99.90;;;;;;5111511;27;19993;-75
2024/03/27 02:30:45;;;;;;;;;;;6.10;99.90;;;;;;5102758;27;20032;-75
2024/03/27 02:33:11;;;;;;;;;;;6.00;99.90;;;;;;5104011;28;20041;-76
2024/03/27 02:35:36;;;;;;;;;;;6.00;99.90;;;;;;5110784;27;20008;-76
2024/03/27 02:38:02;;;;;;;;;;;6.10;99.90;;;;;;5105655;28;20052;-75
2024/03/27 02:40:27;;;;;;;;;;;6.00;99.90;;;;;;5105663;28;20000;-75
2024/03/27 02:42:53;;;;;;;;;;;6.10;99.90;;;;;;5105886;28;20011;-76
2024/03/27 02:45:18;;;;;;;;;;;6.10;99.90;;;;;;5105385;27;20742;-76
2024/03/27 02:47:44;;;;;;;;;;;6.20;99.90;;;;;;5105749;27;20465;-76
2024/03/27 02:50:09;;;;;;;;;;;6.10;99.90;;;;;;5086252;28;20550;-76
2024/03/27 02:52:35;;;;;;;;;;;6.00;99.90;;;;;;5104814;28;20054;-77
2024/03/27 02:55:00;;;;;;;;;;;6.10;99.90;;;;;;5105778;28;20050;-77
2024/03/27 02:57:26;;;;;;;;;;;6.00;99.90;;;;;;5104692;27;20580;-76
2024/03/27 02:59:51;;;;;;;;;;;5.90;99.90;;;;;;5107025;27;20589;-75
2024/03/27 03:02:17;;;;;;;;;;;5.80;99.90;;;;;;5105087;27;20012;-76
2024/03/27 03:04:43;;;;;;;;;;;5.80;99.90;;;;;;5105031;28;20033;-76
2024/03/27 03:07:08;;;;;;;;;;;5.80;99.90;;;;;;5104980;28;20131;-76
2024/03/27 03:09:33;;;;;;;;;;;5.80;99.90;;;;;;5105594;27;20107;-76
2024/03/27 03:11:59;;;;;;;;;;;5.80;99.90;;;;;;5104657;28;20000;-76
2024/03/27 03:14:25;;;;;;;;;;;5.80;99.90;;;;;;5105401;27;21038;-76
2024/03/27 03:16:50;;;;;;;;;;;5.90;99.90;;;;;;5105426;27;20004;-77
2024/03/27 03:19:16;;;;;;;;;;;5.80;99.90;;;;;;5105707;27;19993;-76
2024/03/27 03:21:41;;;;;;;;;;;5.80;99.90;;;;;;5087901;28;20000;-78
2024/03/27 03:24:07;;;;;;;;;;;5.90;99.90;;;;;;5103132;27;19993;-78
2024/03/27 03:26:32;;;;;;;;;;;5.90;99.90;;;;;;5100995;27;20344;-77
2024/03/27 03:28:58;;;;;;;;;;;5.80;99.90;;;;;;5106456;27;20103;-78
2024/03/27 03:31:23;;;;;;;;;;;5.80;99.90;;;;;;5102853;27;20495;-78
2024/03/27 03:33:49;;;;;;;;;;;5.70;99.90;;;;;;5105255;27;20495;-78
2024/03/27 03:36:15;;;;;;;;;;;5.60;99.90;;;;;;5103776;28;20542;-79
2024/03/27 03:38:41;;;;;;;;;;;5.70;99.90;;;;;;5102275;27;20040;-77
2024/03/27 03:41:10;;;;;;;;;;;5.70;99.90;;;;;;5105140;27;20031;-78
2024/03/27 03:43:36;;;;;;;;;;;5.90;99.90;;;;;;5103739;27;20561;-77
2024/03/27 03:46:01;;;;;;;;;;;5.90;99.90;;;;;;5103391;28;20024;-76
2024/03/27 03:48:27;;;;;;;;;;;5.90;99.90;;;;;;5105496;27;20492;-76
2024/03/27 03:50:52;;;;;;;;;;;5.80;99.90;;;;;;5103621;27;20078;-76
2024/03/27 03:53:18;;;;;;;;;;;5.80;99.90;;;;;;5104362;27;20024;-75
2024/03/27 03:55:43;;;;;;;;;;;5.50;99.90;;;;;;5105414;27;20012;-75
2024/03/27 03:58:11;;;;;;;;;;;5.40;99.90;;;;;;5103663;28;20004;-75
2024/03/27 04:00:36;;;;;;;;;;;5.30;99.90;;;;;;5103723;27;19992;-75
2024/03/27 04:03:02;;;;;;;;;;;5.30;99.90;;;;;;5099709;28;20025;-75
2024/03/27 04:05:28;;;;;;;;;;;5.30;99.90;;;;;;5106867;27;19993;-75
2024/03/27 04:07:53;;;;;;;;;;;5.40;99.90;;;;;;5103531;28;19997;-76
2024/03/27 04:10:19;;;;;;;;;;;5.60;99.90;;;;;;5104514;27;20473;-76
2024/03/27 04:12:44;;;;;;;;;;;5.60;99.90;;;;;;5104069;28;20114;-77
2024/03/27 04:15:10;;;;;;;;;;;5.70;99.90;;;;;;5105274;27;20099;-78
2024/03/27 04:17:35;;;;;;;;;;;5.70;99.90;;;;;;5104364;28;20121;-79
2024/03/27 04:20:03;;;;;;;;;;;5.70;99.90;;;;;;5109142;27;20743;-76
2024/03/27 04:22:31;;;;;;;;;;;5.70;99.90;;;;;;5106473;27;20085;-77
2024/03/27 04:24:57;;;;;;;;;;;5.70;99.90;;;;;;5106492;27;19993;-77
2024/03/27 04:27:23;;;;;;;;;;;5.80;99.90;;;;;;5099600;28;20047;-78
2024/03/27 04:29:53;;;;;;;;;;;5.80;99.90;;;;;;5105047;27;20016;-78
2024/03/27 04:32:18;;;;;;;;;;;5.80;99.90;;;;;;5091154;28;19989;-77
2024/03/27 04:34:44;;;;;;;;;;;5.70;99.90;;;;;;5085558;28;19998;-77
2024/03/27 04:37:09;;;;;;;;;;;5.70;99.90;;;;;;5106154;27;20005;-77
2024/03/27 04:39:35;;;;;;;;;;;5.70;99.90;;;;;;5103118;28;20087;-76
2024/03/27 04:42:01;;;;;;;;;;;5.60;99.90;;;;;;5102495;28;20773;-76
2024/03/27 04:44:27;;;;;;;;;;;5.70;99.90;;;;;;5106805;27;19993;-76
2024/03/27 04:46:53;;;;;;;;;;;5.70;99.90;;;;;;5102518;28;19993;-77
2024/03/27 04:49:18;;;;;;;;;;;5.70;99.90;;;;;;5085747;28;19992;-76
2024/03/27 04:51:44;;;;;;;;;;;5.60;99.90;;;;;;5083972;28;20004;-76
2024/03/27 04:54:09;;;;;;;;;;;5.60;99.90;;;;;;5102898;28;20087;-76
2024/03/27 04:56:35;;;;;;;;;;;5.60;99.90;;;;;;5102440;28;20041;-76
2024/03/27 04:59:00;;;;;;;;;;;5.50;99.90;;;;;;5102614;28;20028;-76
2024/03/27 05:01:26;;;;;;;;;;;5.60;99.90;;;;;;5087049;28;20467;-77
2024/03/27 05:03:52;;;;;;;;;;;5.50;99.90;;;;;;5097807;28;20020;-77
2024/03/27 05:06:17;;;;;;;;;;;5.60;99.90;;;;;;5102727;28;20020;-77
2024/03/27 05:08:44;;;;;;;;;;;5.50;99.90;;;;;;5102657;28;20020;-77
2024/03/27 05:11:10;;;;;;;;;;;5.40;99.90;;;;;;5102965;28;20000;-76
2024/03/27 05:13:35;;;;;;;;;;;5.20;99.90;;;;;;5102658;28;20454;-78
2024/03/27 05:16:01;;;;;;;;;;;5.10;99.90;;;;;;5103092;28;20004;-77
2024/03/27 05:18:27;;;;;;;;;;;5.00;99.90;;;;;;5089578;28;20065;-76
2024/03/27 05:20:52;;;;;;;;;;;5.00;99.90;;;;;;5103218;28;19995;-77
2024/03/27 05:23:18;;;;;;;;;;;5.00;99.90;;;;;;5101676;28;19992;-77
2024/03/27 05:25:44;;;;;;;;;;;5.00;99.90;;;;;;5102631;27;20383;-76
2024/03/27 05:28:09;;;;;;;;;;;5.00;99.90;;;;;;5102554;28;19999;-76
2024/03/27 05:30:35;;;;;;;;;;;5.30;99.90;;;;;;5102799;28;19988;-76
2024/03/27 05:33:00;;;;;;;;;;;5.30;99.90;;;;;;5105553;28;19996;-76
2024/03/27 05:35:26;;;;;;;;;;;5.40;99.90;;;;;;5104891;27;20135;-76
2024/03/27 05:37:52;;;;;;;;;;;5.40;99.90;;;;;;5105372;27;20212;-76
2024/03/27 05:40:18;;;;;;;;;;;5.50;99.90;;;;;;5102430;28;20797;-76
2024/03/27 05:42:45;;;;;;;;;;;5.50;99.90;;;;;;5102483;28;20621;-76
2024/03/27 05:45:10;;;;;;;;;;;5.50;99.90;;;;;;5102871;28;20058;-75
2024/03/27 05:47:37;;;;;;;;;;;5.50;99.90;;;;;;5087156;28;20406;-76
2024/03/27 05:50:03;;;;;;;;;;;5.50;99.90;;;;;;5104408;28;20067;-76
2024/03/27 05:52:28;;;;;;;;;;;5.50;99.90;;;;;;5108238;28;20422;-76
2024/03/27 05:54:54;;;;;;;;;;;5.50;99.90;;;;;;5102038;28;19993;-76
2024/03/27 05:57:19;;;;;;;;;;;5.70;99.90;;;;;;5084622;28;20009;-77
2024/03/27 05:59:45;;;;;;;;;;;5.70;99.90;;;;;;5108346;28;20043;-76
2024/03/27 06:02:10;;;;;;;;;;;5.60;99.90;;;;;;5106432;28;19992;-76
2024/03/27 06:04:36;;;;;;;;;;;5.50;99.90;;;;;;5085146;28;19999;-74
2024/03/27 06:07:01;;;;;;;;;;;5.70;99.90;;;;;;5104112;28;20017;-75
2024/03/27 06:09:30;;;;;;;;;;;5.60;99.90;;;;;;5112533;27;20001;-74
2024/03/27 06:11:55;;;;;;;;;;;5.50;99.90;;;;;;5106113;28;20332;-75
2024/03/27 06:14:21;;;;;;;;;;;5.40;99.90;;;;;;5103506;27;20892;-75
2024/03/27 06:16:46;;;;;;;;;;;5.30;99.90;;;;;;5104939;27;20019;-74
2024/03/27 06:19:12;;;;;;;;;;;5.20;99.90;;;;;;5107412;27;19999;-74
2024/03/27 06:21:37;;;;;;;;;;;5.10;99.90;;;;;;5107293;27;19992;-74
2024/03/27 06:24:03;;;;;;;;;;;5.00;99.90;;;;;;5105377;27;20057;-74
2024/03/27 06:26:28;;;;;;;;;;;5.00;99.90;;;;;;5089137;28;20033;-75
2024/03/27 06:28:54;;;;;;;;;;;5.10;99.90;;;;;;5103607;28;19989;-74
2024/03/27 06:31:19;;;;;;;;;;;5.30;99.90;;;;;;5107087;27;20049;-76
2024/03/27 06:33:45;;;;;;;;;;;6.40;99.90;;;;;;5103981;27;19989;-76
2024/03/27 06:36:11;;;;;;;;;;;8.00;99.90;;;;;;5112474;27;20357;-76
2024/03/27 06:38:40;;;;;;;;;;;8.70;99.90;;;;;;5105429;28;20091;-76
2024/03/27 06:41:05;;;;;;;;;;;9.10;99.90;;;;;;5105527;27;19992;-77
2024/03/27 06:43:31;;;;;;;;;;;9.50;99.90;;;;;;5106360;27;20691;-78
2024/03/27 06:45:56;;;;;;;;;;;10.00;99.90;;;;;;5105384;28;20046;-77
2024/03/27 06:48:22;;;;;;;;;;;10.70;99.90;;;;;;5104911;28;19988;-78
2024/03/27 06:50:51;;;;;;;;;;;11.00;98.30;;;;;;5103650;27;20042;-74
2024/03/27 06:53:16;;;;;;;;;;;11.70;96.10;;;;;;5103914;28;19989;-74
2024/03/27 06:55:42;;;;;;;;;;;12.50;94.30;;;;;;5103476;28;20008;-74
2024/03/27 06:58:08;;;;;;;;;;;12.90;92.20;;;;;;5104416;28;20000;-74
2024/03/27 07:00:33;;;;;;;;;;;13.70;90.90;;;;;;5104288;28;19999;-75
2024/03/27 07:02:59;;;;;;;;;;;13.80;89.40;;;;;;5100576;27;20461;-74
2024/03/27 07:05:24;;;;;;;;;;;14.00;86.20;;;;;;5100957;28;20680;-75
2024/03/27 07:07:50;;;;;;;;;;;14.20;85.00;;;;;;5104425;28;20788;-74
2024/03/27 07:10:15;;;;;;;;;;;13.50;84.30;;;;;;5104593;28;20430;-74
2024/03/27 07:12:41;;;;;;;;;;;10.50;91.40;;;;;;5106323;27;20532;-74
2024/03/27 07:15:07;;;;;;;;;;;9.20;95.30;;;;;;5105123;28;20092;-74
2024/03/27 07:17:32;;;;;;;;;;;8.40;97.10;;;;;;5104809;27;20545;-74
2024/03/27 07:19:59;;;;;;;;;;;10.40;97.10;;;;;;5105516;28;20434;-75
2024/03/27 07:22:24;;;;;;;;;;;11.00;92.60;;;;;;5109007;27;19999;-75
2024/03/27 07:24:50;;;;;;;;;;;12.80;91.10;;;;;;5116444;27;19988;-75
2024/03/27 07:27:16;;;;;;;;;;;13.70;88.20;;;;;;5106090;27;20041;-75
2024/03/27 07:29:42;;;;;;;;;;;13.80;82.90;;;;;;5085426;28;20000;-75
2024/03/27 07:32:07;;;;;;;;;;;15.00;82.50;;;;;;5103096;28;20080;-76
2024/03/27 07:34:33;;;;;;;;;;;14.90;78.30;;;;;;5103864;28;20015;-76
2024/03/27 07:36:58;;;;;;;;;;;16.10;79.30;;;;;;5099918;28;20004;-75
2024/03/27 07:39:25;;;;;;;;;;;16.00;76.40;;;;;;5108866;27;20096;-75
2024/03/27 07:41:50;;;;;;;;;;;15.90;74.10;;;;;;5104185;27;20524;-75
2024/03/27 07:44:17;;;;;;;;;;;16.80;72.90;;;;;;5104575;28;19988;-76
2024/03/27 07:46:43;;;;;;;;;;;17.60;67.70;;;;;;5104323;28;20356;-75
2024/03/27 07:49:08;;;;;;;;;;;18.30;68.90;;;;;;5104743;28;19988;-76
2024/03/27 07:51:34;;;;;;;;;;;17.80;66.40;;;;;;5104753;28;19993;-75
2024/03/27 07:53:59;;;;;;;;;;;17.70;68.00;;;;;;5104649;28;19996;-75
2024/03/27 07:56:25;;;;;;;;;;;18.30;68.20;;;;;;5104073;28;20165;-75
2024/03/27 07:58:52;;;;;;;;;;;18.50;64.40;;;;;;5104388;28;19992;-75
2024/03/27 08:01:18;;;;;;;;;;;17.90;66.10;;;;;;5104567;28;19989;-75
2024/03/27 08:03:44;;;;;;;;;;;17.90;65.50;;;;;;5093788;28;19993;-75
2024/03/27 08:06:13;;;;;;;;;;;18.10;64.90;;;;;;5100656;28;20436;-75
2024/03/27 08:08:42;;;;;;;;;;;16.90;65.60;;;;;;5100191;28;20468;-75
2024/03/27 08:11:09;;;;;;;;;;;15.90;68.60;;;;;;5102200;28;20075;-75
2024/03/27 08:13:35;;;;;;;;;;;15.40;68.50;;;;;;5103652;28;19988;-75
2024/03/27 08:16:03;;;;;;;;;;;13.60;73.70;;;;;;5104260;28;20012;-75
2024/03/27 08:18:39;;;;;;;;;;;12.30;78.00;;;;;;5101861;28;19999;-75
2024/03/27 08:21:05;;;;;;;;;;;12.00;80.60;;;;;;5102852;28;19988;-75
2024/03/27 08:23:30;;;;;;;;;;;12.00;81.80;;;;;;5100102;28;20004;-75
2024/03/27 08:25:56;;;;;;;;;;;12.00;81.10;;;;;;5101871;28;20000;-75
2024/03/27 08:28:21;;;;;;;;;;;14.40;77.80;;;;;;5099427;28;19993;-75
2024/03/27 08:30:47;;;;;;;;;;;17.80;68.10;;;;;;5100947;28;20028;-76
2024/03/27 08:33:12;;;;;;;;;;;19.10;62.20;;;;;;5103785;28;20041;-75
2024/03/27 08:35:39;;;;;;;;;;;18.10;62.10;;;;;;5106400;27;20044;-75
2024/03/27 08:38:05;;;;;;;;;;;17.30;65.90;;;;;;5103218;28;19997;-75
2024/03/27 08:40:32;;;;;;;;;;;18.30;59.80;;;;;;5107066;27;19996;-75
2024/03/27 08:42:58;;;;;;;;;;;15.60;67.00;;;;;;5103633;28;20067;-75
2024/03/27 08:45:23;;;;;;;;;;;14.50;69.90;;;;;;5103758;28;20003;-75
2024/03/27 08:47:49;;;;;;;;;;;13.30;74.40;;;;;;5103146;28;20491;-74
2024/03/27 08:50:15;;;;;;;;;;;12.80;77.20;;;;;;5084862;28;19989;-75
2024/03/27 08:52:41;;;;;;;;;;;13.50;77.40;;;;;;5103019;28;20042;-75
2024/03/27 08:55:07;;;;;;;;;;;13.80;73.20;;;;;;5103103;28;19988;-75
2024/03/27 08:57:32;;;;;;;;;;;13.50;76.60;;;;;;5103142;28;20008;-75
2024/03/27 08:59:58;;;;;;;;;;;13.00;75.40;;;;;;5103024;28;20352;-75
2024/03/27 09:02:24;;;;;;;;;;;13.40;75.50;;;;;;5102969;28;20709;-75
2024/03/27 09:04:49;;;;;;;;;;;16.00;69.20;;;;;;5099281;28;20066;-75
2024/03/27 09:07:15;;;;;;;;;;;15.80;69.50;;;;;;5102919;28;20593;-75
2024/03/27 09:09:40;;;;;;;;;;;14.00;68.30;;;;;;5103043;28;19989;-75
2024/03/27 09:12:06;;;;;;;;;;;13.00;73.00;;;;;;5083894;28;20038;-75
2024/03/27 09:14:31;;;;;;;;;;;12.90;74.00;;;;;;5102791;28;20080;-75
2024/03/27 09:16:57;;;;;;;;;;;14.50;75.30;;;;;;5102115;28;20115;-75
2024/03/27 09:19:22;;;;;;;;;;;14.80;70.80;;;;;;5102496;28;20091;-75
2024/03/27 09:21:48;;;;;;;;;;;14.80;68.50;;;;;;5102603;28;19989;-75
2024/03/27 09:24:13;;;;;;;;;;;13.70;72.70;;;;;;5102221;28;20036;-74
2024/03/27 09:26:39;;;;;;;;;;;12.40;72.70;;;;;;5093707;28;20031;-75
2024/03/27 09:29:05;;;;;;;;;;;12.50;76.90;;;;;;5102031;28;19989;-75
2024/03/27 09:31:30;;;;;;;;;;;12.80;77.10;;;;;;5102461;28;20011;-75
2024/03/27 09:33:56;;;;;;;;;;;15.10;73.70;;;;;;5102382;28;20040;-74
2024/03/27 09:36:22;;;;;;;;;;;15.20;66.00;;;;;;5102042;28;20450;-75
2024/03/27 09:38:48;;;;;;;;;;;13.90;70.00;;;;;;5101928;28;20040;-75
2024/03/27 09:41:13;;;;;;;;;;;13.70;72.70;;;;;;5107111;28;20087;-75
2024/03/27 09:43:40;;;;;;;;;;;18.90;61.00;;;;;;5102618;28;20066;-75
2024/03/27 09:46:06;;;;;;;;;;;16.30;60.90;;;;;;5102645;28;20106;-75
2024/03/27 09:48:32;;;;;;;;;;;15.80;64.00;;;;;;5095726;28;20027;-75
2024/03/27 09:50:58;;;;;;;;;;;14.90;64.60;;;;;;5102194;28;19989;-75
2024/03/27 09:53:24;;;;;;;;;;;13.30;68.40;;;;;;5102790;28;19996;-75
2024/03/27 09:55:50;;;;;;;;;;;14.10;69.50;;;;;;5102285;28;20167;-75
2024/03/27 09:58:16;;;;;;;;;;;13.40;69.70;;;;;;5102301;28;20015;-75
2024/03/27 10:00:42;;;;;;;;;;;13.20;70.60;;;;;;5102108;28;20023;-75
2024/03/27 10:03:08;;;;;;;;;;;13.00;68.20;;;;;;5097932;28;19989;-75
2024/03/27 10:05:34;;;;;;;;;;;13.70;67.30;;;;;;5102995;28;19993;-75
2024/03/27 10:07:59;;;;;;;;;;;15.90;61.90;;;;;;5102452;28;20003;-75
2024/03/27 10:10:25;;;;;;;;;;;17.10;58.80;;;;;;5102183;28;19993;-75
2024/03/27 10:12:51;;;;;;;;;;;17.20;60.20;;;;;;5102350;28;20756;-75
2024/03/27 10:15:17;;;;;;;;;;;16.30;62.10;;;;;;5104058;28;19989;-75
2024/03/27 10:17:42;;;;;;;;;;;15.70;66.10;;;;;;5102230;28;20055;-75
2024/03/27 10:20:09;;;;;;;;;;;14.40;67.90;;;;;;5102427;28;20000;-75
2024/03/27 10:22:35;;;;;;;;;;;14.50;66.00;;;;;;5101802;28;20516;-75
2024/03/27 10:25:02;;;;;;;;;;;14.50;66.90;;;;;;5102276;28;19988;-75
2024/03/27 10:27:29;;;;;;;;;;;13.90;67.50;;;;;;5082257;28;19996;-75
2024/03/27 10:29:54;;;;;;;;;;;13.60;66.80;;;;;;5102322;28;20130;-75
2024/03/27 10:32:21;;;;;;;;;;;12.90;72.30;;;;;;5102452;28;19988;-75
2024/03/27 10:34:48;;;;;;;;;;;12.80;74.30;;;;;;5102524;28;20166;-75
2024/03/27 10:37:15;;;;;;;;;;;12.10;75.20;;;;;;5096728;28;20015;-75
2024/03/27 10:39:50;;;;;;;;;;;11.80;73.60;;;;;;5106860;28;19992;-76
2024/03/27 10:42:25;;;;;;;;;;;12.10;77.10;;;;;;5099931;28;20009;-75
2024/03/27 10:44:54;;;;;;;;;;;12.30;76.00;;;;;;5101961;28;19995;-75
2024/03/27 10:47:22;;;;;;;;;;;12.10;74.80;;;;;;5104402;28;20034;-74
2024/03/27 10:49:47;;;;;;;;;;;12.00;75.60;;;;;;5105670;28;19989;-75
2024/03/27 10:52:17;;;;;;;;;;;11.80;77.90;;;;;;5104948;28;19989;-75
2024/03/27 10:54:43;;;;;;;;;;;12.50;79.60;;;;;;5105465;28;20523;-75
2024/03/27 10:57:09;;;;;;;;;;;13.10;80.80;;;;;;5105786;28;20031;-74
2024/03/27 10:59:35;;;;;;;;;;;13.40;80.10;;;;;;5105256;28;19996;-75
2024/03/27 11:02:08;;;;;;;;;;;13.60;78.40;;;;;;5105578;28;19996;-75
2024/03/27 11:04:35;;;;;;;;;;;13.50;76.60;;;;;;5101246;28;20020;-75
2024/03/27 11:07:01;;;;;;;;;;;13.50;75.80;;;;;;5105271;28;20554;-75
2024/03/27 11:09:26;;;;;;;;;;;13.50;74.30;;;;;;5104409;28;20038;-75
2024/03/27 11:11:52;;;;;;;;;;;13.50;76.40;;;;;;5105435;28;19992;-75
2024/03/27 11:14:18;;;;;;;;;;;13.70;80.10;;;;;;5104946;28;19988;-75
2024/03/27 11:17:10;;;;;;;;;;;13.60;76.70;;;;;;5105411;28;20012;-74
2024/03/27 11:19:37;;;;;;;;;;;12.20;77.10;;;;;;5101367;28;20032;-75
2024/03/27 11:22:04;;;;;;;;;;;12.40;78.90;;;;;;5104996;28;19988;-75
2024/03/27 11:24:29;;;;;;;;;;;12.20;77.00;;;;;;5104696;28;19989;-75
2024/03/27 11:27:01;;;;;;;;;;;12.10;78.70;;;;;;5097489;28;20663;-75
2024/03/27 11:29:27;;;;;;;;;;;12.40;81.20;;;;;;5101857;28;19988;-75
2024/03/27 11:31:52;;;;;;;;;;;12.30;78.20;;;;;;5104126;28;19989;-74
2024/03/27 11:34:19;;;;;;;;;;;12.20;77.20;;;;;;5104478;28;19999;-75
2024/03/27 11:36:45;;;;;;;;;;;12.80;76.40;;;;;;5104873;28;20015;-75
2024/03/27 11:39:10;;;;;;;;;;;12.90;74.10;;;;;;5107394;27;19989;-75
2024/03/27 11:41:36;;;;;;;;;;;13.10;74.00;;;;;;5107061;27;20034;-75
2024/03/27 11:44:02;;;;;;;;;;;13.30;72.20;;;;;;5100349;28;20488;-75
2024/03/27 11:46:28;;;;;;;;;;;13.00;72.10;;;;;;5102777;28;20050;-75
2024/03/27 11:48:53;;;;;;;;;;;13.60;70.10;;;;;;5104766;28;20028;-75
2024/03/27 11:51:19;;;;;;;;;;;13.80;70.00;;;;;;5104431;28;19988;-75
2024/03/27 11:53:45;;;;;;;;;;;13.90;67.60;;;;;;5104420;28;20397;-75
2024/03/27 11:56:11;;;;;;;;;;;13.80;69.00;;;;;;5104496;28;20009;-75
2024/03/27 11:58:37;;;;;;;;;;;14.60;69.80;;;;;;5103907;28;20036;-75
2024/03/27 12:01:03;;;;;;;;;;;14.10;68.20;;;;;;5104358;28;19996;-75
2024/03/27 12:03:29;;;;;;;;;;;14.10;66.60;;;;;;5099735;28;20079;-75
2024/03/27 12:05:54;;;;;;;;;;;14.00;68.20;;;;;;5103840;28;20564;-75
2024/03/27 12:08:20;;;;;;;;;;;14.50;68.80;;;;;;5104181;28;20075;-75
2024/03/27 12:10:46;;;;;;;;;;;14.60;68.90;;;;;;5101945;28;19989;-75
2024/03/27 12:13:11;;;;;;;;;;;13.60;66.40;;;;;;5104455;28;20104;-74
2024/03/27 12:15:37;;;;;;;;;;;13.40;67.10;;;;;;5103072;28;19988;-74
2024/03/27 12:18:03;;;;;;;;;;;13.50;67.60;;;;;;5104372;28;20028;-75
2024/03/27 12:20:32;;;;;;;;;;;13.90;66.20;;;;;;5104313;28;20096;-75
2024/03/27 12:22:57;;;;;;;;;;;13.80;71.70;;;;;;5096742;28;20080;-74
2024/03/27 12:25:23;;;;;;;;;;;13.30;68.00;;;;;;5100651;28;20083;-75
2024/03/27 12:27:49;;;;;;;;;;;13.40;69.60;;;;;;5077898;28;19989;-75
2024/03/27 12:30:18;;;;;;;;;;;13.00;66.10;;;;;;5103797;28;20000;-75
2024/03/27 12:32:44;;;;;;;;;;;13.10;67.40;;;;;;5103715;28;19999;-75
2024/03/27 12:35:10;;;;;;;;;;;13.40;66.90;;;;;;5103688;28;19989;-75
2024/03/27 12:37:35;;;;;;;;;;;13.70;66.40;;;;;;5103285;28;20047;-75
2024/03/27 12:40:01;;;;;;;;;;;13.20;63.60;;;;;;5108484;27;19996;-75
2024/03/27 12:42:26;;;;;;;;;;;13.30;66.20;;;;;;5103772;28;19988;-75
2024/03/27 12:44:52;;;;;;;;;;;13.70;63.50;;;;;;5103464;28;20034;-75
2024/03/27 12:47:17;;;;;;;;;;;13.70;63.50;;;;;;5100902;28;20430;-75
2024/03/27 12:49:43;;;;;;;;;;;13.60;63.40;;;;;;5103425;28;19992;-75
2024/03/27 12:52:08;;;;;;;;;;;13.30;64.00;;;;;;5101081;28;20408;-75
2024/03/27 12:54:34;;;;;;;;;;;12.90;63.70;;;;;;5103217;28;20630;-75
2024/03/27 12:57:00;;;;;;;;;;;13.00;65.10;;;;;;5103351;28;20539;-74
2024/03/27 12:59:26;;;;;;;;;;;12.80;63.90;;;;;;5100782;28;19999;-75
2024/03/27 13:01:51;;;;;;;;;;;12.80;65.20;;;;;;5102629;28;20067;-74
2024/03/27 13:04:20;;;;;;;;;;;12.80;63.60;;;;;;5103950;27;20440;-75
2024/03/27 13:06:45;;;;;;;;;;;12.70;62.90;;;;;;5100974;28;20020;-75
2024/03/27 13:09:13;;;;;;;;;;;12.60;63.70;;;;;;5099790;28;20000;-74
2024/03/27 13:11:39;;;;;;;;;;;12.50;62.90;;;;;;5084242;28;19997;-75
2024/03/27 13:14:04;;;;;;;;;;;12.60;64.30;;;;;;5102803;28;20818;-75
2024/03/27 13:16:30;;;;;;;;;;;12.50;63.70;;;;;;5102843;28;20008;-75
2024/03/27 13:18:56;;;;;;;;;;;12.70;64.60;;;;;;5102987;28;19992;-75
2024/03/27 13:21:21;;;;;;;;;;;12.30;63.30;;;;;;5103022;28;19996;-75
2024/03/27 13:23:47;;;;;;;;;;;12.30;64.80;;;;;;5102766;28;19996;-75
2024/03/27 13:26:13;;;;;;;;;;;12.20;63.40;;;;;;5100199;28;20079;-75
2024/03/27 13:28:39;;;;;;;;;;;12.30;62.10;;;;;;5102608;28;19992;-75
2024/03/27 13:31:04;;;;;;;;;;;12.40;62.00;;;;;;5103143;28;20067;-75
2024/03/27 13:33:33;;;;;;;;;;;12.50;62.40;;;;;;5102588;28;20036;-75
2024/03/27 13:35:59;;;;;;;;;;;12.30;62.10;;;;;;5102280;28;20134;-75
2024/03/27 13:38:25;;;;;;;;;;;12.40;62.30;;;;;;5102638;28;20107;-75
2024/03/27 13:40:51;;;;;;;;;;;12.40;60.90;;;;;;5100278;28;19999;-75
2024/03/27 13:43:16;;;;;;;;;;;12.40;60.90;;;;;;5100560;28;19989;-74
2024/03/27 13:45:42;;;;;;;;;;;12.50;61.30;;;;;;5103225;28;20000;-75
2024/03/27 13:48:07;;;;;;;;;;;12.50;60.70;;;;;;5102490;28;20072;-75
2024/03/27 13:50:33;;;;;;;;;;;12.40;61.90;;;;;;5102559;28;20408;-75
2024/03/27 13:52:59;;;;;;;;;;;12.30;62.60;;;;;;5100689;28;19989;-75
2024/03/27 13:55:24;;;;;;;;;;;12.20;63.70;;;;;;5100118;28;20745;-75
2024/03/27 13:57:50;;;;;;;;;;;11.70;62.70;;;;;;5101422;28;20005;-75
2024/03/27 14:00:15;;;;;;;;;;;11.40;64.70;;;;;;5102525;28;19999;-75
2024/03/27 14:02:41;;;;;;;;;;;11.50;66.10;;;;;;5100680;28;19993;-75
2024/03/27 14:05:06;;;;;;;;;;;11.60;65.70;;;;;;5085912;28;20031;-75
2024/03/27 14:07:33;;;;;;;;;;;11.60;66.90;;;;;;5102221;28;20028;-75
2024/03/27 14:09:58;;;;;;;;;;;11.50;66.80;;;;;;5102234;28;20057;-75
2024/03/27 14:12:24;;;;;;;;;;;11.70;66.70;;;;;;5102238;28;20526;-75
2024/03/27 14:14:50;;;;;;;;;;;11.60;66.30;;;;;;5102563;28;20071;-75
2024/03/27 14:17:16;;;;;;;;;;;11.70;67.20;;;;;;5102332;28;20008;-75